Time;durP1;ratioP1;P1;durP2;ratioP2;P2;SDS_P1;SDS_P2;PMS_P1;PMS_P2;Temp;Humidity;BMP_temperature;BMP_pressure;BME280_temperature;BME280_humidity;BME280_pressure;Samples;Min_cycle;Max_cycle;Signal;HPM_P1;HPM_P2
2023/09/29 00:00:51;;;;;;;15.95;4.00;;;14.40;1.00;;;;;;5037226;28;20032;-82
2023/09/29 00:03:17;;;;;;;11.77;3.85;;;14.50;1.00;;;;;;5050560;28;20132;-81
2023/09/29 00:05:43;;;;;;;11.40;3.97;;;14.40;1.00;;;;;;5061913;28;20048;-82
2023/09/29 00:08:11;;;;;;;11.38;4.28;;;14.40;1.00;;;;;;5051033;28;20043;-82
2023/09/29 00:10:40;;;;;;;13.40;4.15;;;14.40;1.00;;;;;;5032875;28;20186;-82
2023/09/29 00:13:07;;;;;;;18.63;4.25;;;14.50;1.00;;;;;;5041477;28;20060;-82
2023/09/29 00:15:33;;;;;;;16.42;4.00;;;14.50;1.00;;;;;;5051268;28;20041;-82
2023/09/29 00:18:00;;;;;;;16.42;4.13;;;14.50;1.00;;;;;;5029685;28;20054;-82
2023/09/29 00:20:26;;;;;;;11.10;4.50;;;14.50;1.00;;;;;;5040709;28;20518;-81
2023/09/29 00:22:56;;;;;;;19.67;4.50;;;14.60;1.00;;;;;;5038768;28;20088;-82
2023/09/29 00:25:22;;;;;;;18.50;4.70;;;14.60;1.00;;;;;;5057896;28;20079;-82
2023/09/29 00:27:48;;;;;;;21.70;4.53;;;14.60;1.00;;;;;;5022963;28;20530;-81
2023/09/29 00:30:14;;;;;;;15.07;4.40;;;14.70;1.00;;;;;;5063192;28;20067;-82
2023/09/29 00:32:51;;;;;;;16.98;4.60;;;14.70;1.00;;;;;;5031502;28;20052;-82
2023/09/29 00:35:24;;;;;;;13.30;4.88;;;14.80;1.00;;;;;;5045737;28;20387;-82
2023/09/29 00:37:57;;;;;;;12.45;4.05;;;14.80;1.00;;;;;;5026922;28;20041;-82
2023/09/29 00:40:23;;;;;;;15.98;4.47;;;14.90;1.00;;;;;;5045494;28;20041;-82
2023/09/29 00:42:49;;;;;;;13.80;4.28;;;14.90;1.00;;;;;;5048163;28;20037;-82
2023/09/29 00:45:19;;;;;;;12.80;4.53;;;15.00;1.00;;;;;;5031669;28;20041;-82
2023/09/29 00:47:45;;;;;;;16.10;4.35;;;15.00;1.00;;;;;;5046267;28;20057;-82
2023/09/29 00:50:14;;;;;;;14.55;4.35;;;15.00;1.00;;;;;;5026468;28;20053;-82
2023/09/29 00:52:41;;;;;;;13.88;4.13;;;15.00;1.00;;;;;;5047730;28;20045;-82
2023/09/29 00:55:12;;;;;;;11.07;4.68;;;15.10;1.00;;;;;;5031921;28;20063;-82
2023/09/29 00:57:40;;;;;;;17.75;4.47;;;15.00;1.00;;;;;;5060919;28;20107;-82
2023/09/29 01:00:21;;;;;;;18.80;5.43;;;15.10;1.00;;;;;;5030065;28;20033;-82
2023/09/29 01:02:51;;;;;;;12.88;4.30;;;15.00;1.00;;;;;;5061274;28;20092;-82
2023/09/29 01:05:17;;;;;;;13.98;5.18;;;15.00;1.00;;;;;;5046704;28;20045;-81
2023/09/29 01:07:44;;;;;;;12.27;3.83;;;15.00;1.00;;;;;;5029367;28;20072;-81
2023/09/29 01:10:15;;;;;;;18.00;4.97;;;15.00;1.00;;;;;;5045729;28;20063;-82
2023/09/29 01:12:41;;;;;;;17.52;4.80;;;15.00;1.00;;;;;;5041170;28;20166;-82
2023/09/29 01:15:12;;;;;;;12.57;3.92;;;14.90;1.00;;;;;;5048586;28;20079;-82
2023/09/29 01:17:40;;;;;;;9.88;4.15;;;14.90;1.00;;;;;;5062483;28;20033;-82
2023/09/29 01:20:13;;;;;;;13.25;5.30;;;14.90;1.00;;;;;;5039944;28;20045;-82
2023/09/29 01:22:48;;;;;;;13.77;4.72;;;14.90;1.00;;;;;;5034721;28;20033;-82
2023/09/29 01:25:14;;;;;;;16.00;4.65;;;14.90;1.00;;;;;;5047721;28;20033;-81
2023/09/29 01:27:40;;;;;;;13.52;5.25;;;14.80;1.00;;;;;;5026327;28;20037;-82
2023/09/29 01:30:06;;;;;;;14.73;4.47;;;14.90;1.00;;;;;;5023792;28;20412;-82
2023/09/29 01:32:33;;;;;;;15.65;5.30;;;14.90;1.00;;;;;;5034558;28;20084;-82
2023/09/29 01:34:58;;;;;;;14.05;4.97;;;14.90;1.00;;;;;;5035807;28;20044;-82
2023/09/29 01:37:25;;;;;;;17.83;4.93;;;15.00;1.00;;;;;;5035989;28;20042;-82
2023/09/29 01:39:51;;;;;;;11.82;4.00;;;15.00;1.00;;;;;;5038884;28;20031;-82
2023/09/29 01:42:18;;;;;;;11.15;4.60;;;15.10;1.00;;;;;;5047873;28;20032;-82
2023/09/29 01:44:46;;;;;;;13.63;4.80;;;15.10;1.00;;;;;;5048497;28;20128;-82
2023/09/29 01:47:12;;;;;;;10.88;4.03;;;15.10;1.00;;;;;;5055519;28;20149;-82
2023/09/29 01:49:37;;;;;;;20.27;4.88;;;15.10;1.00;;;;;;5050055;28;20047;-82
2023/09/29 01:52:03;;;;;;;13.77;5.32;;;15.10;1.00;;;;;;5037885;28;20072;-82
2023/09/29 01:54:29;;;;;;;16.35;4.47;;;15.20;99.90;;;;;;5026912;28;20391;-82
2023/09/29 01:56:54;;;;;;;12.30;4.43;;;15.10;99.90;;;;;;5037751;28;20061;-82
2023/09/29 01:59:20;;;;;;;14.30;4.72;;;15.10;1.00;;;;;;5045181;28;20040;-82
2023/09/29 02:01:45;;;;;;;11.93;4.00;;;15.10;1.00;;;;;;5028271;28;20029;-82
2023/09/29 02:04:11;;;;;;;11.45;4.68;;;15.10;1.00;;;;;;5027947;28;20071;-79
2023/09/29 02:06:40;;;;;;;14.20;4.70;;;15.20;1.00;;;;;;5027837;28;20729;-79
2023/09/29 02:09:10;;;;;;;8.98;4.68;;;15.20;1.00;;;;;;5041242;28;20045;-79
2023/09/29 02:11:39;;;;;;;12.95;4.60;;;15.20;1.00;;;;;;5026549;28;20044;-79
2023/09/29 02:14:05;;;;;;;13.93;4.13;;;15.20;1.00;;;;;;5026834;28;20040;-79
2023/09/29 02:16:32;;;;;;;14.77;4.72;;;15.30;1.00;;;;;;5033359;28;20085;-79
2023/09/29 02:18:58;;;;;;;15.85;4.28;;;15.30;1.00;;;;;;5047005;28;20040;-79
2023/09/29 02:21:27;;;;;;;14.02;4.50;;;15.30;1.00;;;;;;5050269;28;20047;-79
2023/09/29 02:23:55;;;;;;;10.40;4.13;;;15.30;1.00;;;;;;5027575;28;20076;-79
2023/09/29 02:26:22;;;;;;;12.57;4.07;;;15.30;1.00;;;;;;5050897;28;21336;-79
2023/09/29 02:28:49;;;;;;;13.15;4.75;;;15.30;99.90;;;;;;5048854;28;20044;-80
2023/09/29 02:31:15;;;;;;;13.63;3.88;;;15.30;99.90;;;;;;5028267;28;20041;-79
2023/09/29 02:33:41;;;;;;;11.60;3.90;;;15.40;99.90;;;;;;5045778;28;20033;-80
2023/09/29 02:36:07;;;;;;;16.90;5.25;;;15.40;99.90;;;;;;5029997;28;20127;-80
2023/09/29 02:38:33;;;;;;;15.50;4.88;;;15.40;99.90;;;;;;5027768;28;20037;-80
2023/09/29 02:40:59;;;;;;;11.82;4.88;;;15.40;99.90;;;;;;5046593;28;20045;-79
2023/09/29 02:43:30;;;;;;;8.35;3.60;;;15.50;99.90;;;;;;5044597;28;20635;-79
2023/09/29 02:45:56;;;;;;;14.45;4.35;;;15.50;99.90;;;;;;5025760;28;20037;-80
2023/09/29 02:48:22;;;;;;;15.52;4.30;;;15.50;99.90;;;;;;5024253;28;20072;-80
2023/09/29 02:50:48;;;;;;;16.15;4.55;;;15.60;99.90;;;;;;5043315;28;20060;-80
2023/09/29 02:53:15;;;;;;;11.73;3.72;;;15.60;99.90;;;;;;5028914;28;20058;-79
2023/09/29 02:55:41;;;;;;;17.95;4.45;;;15.60;99.90;;;;;;5027851;28;20394;-79
2023/09/29 02:58:07;;;;;;;10.27;3.72;;;15.60;99.90;;;;;;5042160;28;20041;-79
2023/09/29 03:00:33;;;;;;;13.65;3.85;;;15.60;99.90;;;;;;5029257;28;20028;-79
2023/09/29 03:02:59;;;;;;;17.65;5.15;;;15.60;99.90;;;;;;5028353;28;20133;-79
2023/09/29 03:05:25;;;;;;;10.95;3.78;;;15.60;99.90;;;;;;5029220;28;20128;-79
2023/09/29 03:07:52;;;;;;;15.18;4.72;;;15.60;99.90;;;;;;5044717;28;20658;-79
2023/09/29 03:10:18;;;;;;;11.18;3.85;;;15.50;99.90;;;;;;5040942;28;20056;-78
2023/09/29 03:12:44;;;;;;;11.85;4.25;;;15.60;99.90;;;;;;5032679;28;20045;-79
2023/09/29 03:15:15;;;;;;;10.95;3.85;;;15.50;99.90;;;;;;5049568;28;20032;-79
2023/09/29 03:17:41;;;;;;;11.15;3.67;;;15.50;99.90;;;;;;5030049;28;20487;-79
2023/09/29 03:20:10;;;;;;;9.50;3.97;;;15.60;99.90;;;;;;5030911;28;20351;-79
2023/09/29 03:22:37;;;;;;;15.55;3.97;;;15.60;99.90;;;;;;5028513;28;20128;-79
2023/09/29 03:25:04;;;;;;;10.45;3.97;;;15.60;99.90;;;;;;5039570;28;20044;-79
2023/09/29 03:27:29;;;;;;;10.82;4.22;;;15.70;99.90;;;;;;5057790;28;20627;-79
2023/09/29 03:29:55;;;;;;;11.60;4.18;;;15.70;99.90;;;;;;5043614;28;20601;-79
2023/09/29 03:32:20;;;;;;;14.25;4.78;;;15.70;99.90;;;;;;5030456;28;20111;-79
2023/09/29 03:34:48;;;;;;;10.93;4.40;;;15.60;99.90;;;;;;5041677;28;20036;-79
2023/09/29 03:37:14;;;;;;;17.20;5.65;;;15.60;99.90;;;;;;5031744;28;20548;-79
2023/09/29 03:39:40;;;;;;;10.85;4.07;;;15.60;99.90;;;;;;5035057;28;20123;-79
2023/09/29 03:42:05;;;;;;;10.45;4.45;;;15.60;99.90;;;;;;5043151;28;20488;-78
2023/09/29 03:44:32;;;;;;;9.57;4.28;;;15.60;99.90;;;;;;5043802;28;20427;-79
2023/09/29 03:46:58;;;;;;;8.10;3.67;;;15.60;99.90;;;;;;5038192;28;20040;-79
2023/09/29 03:49:24;;;;;;;11.43;4.35;;;15.60;99.90;;;;;;5028294;28;20519;-78
2023/09/29 03:51:51;;;;;;;13.35;4.30;;;15.70;99.90;;;;;;5044055;28;20065;-79
2023/09/29 03:54:18;;;;;;;14.57;4.20;;;15.60;99.90;;;;;;5044133;28;20068;-79
2023/09/29 03:56:44;;;;;;;15.73;4.10;;;15.70;99.90;;;;;;5052780;28;20111;-79
2023/09/29 03:59:10;;;;;;;11.40;4.07;;;15.70;99.90;;;;;;5032468;28;20120;-79
2023/09/29 04:01:36;;;;;;;11.68;4.72;;;15.60;99.90;;;;;;5023182;28;20048;-79
2023/09/29 04:04:03;;;;;;;15.18;4.47;;;15.80;99.90;;;;;;5027150;28;20037;-79
2023/09/29 04:06:29;;;;;;;8.57;4.78;;;15.80;99.90;;;;;;5028120;28;20060;-79
2023/09/29 04:08:55;;;;;;;9.73;3.90;;;15.80;99.90;;;;;;5030806;28;20489;-79
2023/09/29 04:11:21;;;;;;;16.17;4.43;;;15.80;99.90;;;;;;5033349;28;20045;-79
2023/09/29 04:13:47;;;;;;;8.57;4.28;;;15.90;99.90;;;;;;5036934;28;20463;-79
2023/09/29 04:16:14;;;;;;;12.50;4.40;;;15.90;99.90;;;;;;5042172;28;20101;-79
2023/09/29 04:18:39;;;;;;;12.73;4.25;;;15.90;99.90;;;;;;5031251;28;20032;-79
2023/09/29 04:21:12;;;;;;;13.48;4.90;;;15.90;99.90;;;;;;5031024;28;20091;-79
2023/09/29 04:23:37;;;;;;;10.32;4.18;;;16.00;99.90;;;;;;5053393;28;20110;-79
2023/09/29 04:26:03;;;;;;;7.55;4.05;;;16.00;99.90;;;;;;5022727;28;20041;-79
2023/09/29 04:28:29;;;;;;;14.52;4.68;;;16.00;99.90;;;;;;5029180;28;20040;-79
2023/09/29 04:30:54;;;;;;;10.88;4.43;;;16.00;99.90;;;;;;5031094;28;20056;-79
2023/09/29 04:33:20;;;;;;;12.18;4.55;;;16.10;99.90;;;;;;5048233;28;20044;-79
2023/09/29 04:35:45;;;;;;;8.88;4.90;;;16.20;99.90;;;;;;5055944;28;20049;-79
2023/09/29 04:38:11;;;;;;;9.75;4.53;;;16.10;99.90;;;;;;5047552;28;20033;-79
2023/09/29 04:40:37;;;;;;;14.13;4.88;;;16.20;99.90;;;;;;5038765;28;20146;-79
2023/09/29 04:43:04;;;;;;;10.55;5.07;;;16.30;99.90;;;;;;5046848;28;20407;-79
2023/09/29 04:45:30;;;;;;;10.10;4.70;;;16.20;99.90;;;;;;5056508;28;20085;-79
2023/09/29 04:47:58;;;;;;;9.82;4.50;;;16.30;99.90;;;;;;5058893;28;20029;-79
2023/09/29 04:50:23;;;;;;;8.30;4.63;;;16.30;99.90;;;;;;5033259;28;20140;-79
2023/09/29 04:52:49;;;;;;;11.45;5.43;;;16.40;99.90;;;;;;5028785;28;20140;-79
2023/09/29 04:55:15;;;;;;;12.27;5.00;;;16.40;99.90;;;;;;5041780;28;20044;-79
2023/09/29 04:57:41;;;;;;;13.30;4.70;;;16.40;99.90;;;;;;5046450;28;20033;-80
2023/09/29 05:00:07;;;;;;;11.48;5.10;;;16.40;99.90;;;;;;5056136;28;20487;-78
2023/09/29 05:02:33;;;;;;;14.55;5.13;;;16.50;99.90;;;;;;5059719;28;20449;-78
2023/09/29 05:04:58;;;;;;;12.50;4.50;;;16.60;99.90;;;;;;5032358;28;20045;-78
2023/09/29 05:07:24;;;;;;;11.30;5.40;;;16.50;99.90;;;;;;5047300;28;20094;-79
2023/09/29 05:09:50;;;;;;;9.77;4.80;;;16.50;99.90;;;;;;5057184;28;20048;-79
2023/09/29 05:12:16;;;;;;;11.68;5.43;;;16.60;99.90;;;;;;5046398;28;20044;-78
2023/09/29 05:14:44;;;;;;;14.07;5.65;;;16.60;99.90;;;;;;5047411;28;20047;-79
2023/09/29 05:17:10;;;;;;;12.45;5.63;;;16.60;99.90;;;;;;5046958;28;20044;-79
2023/09/29 05:19:37;;;;;;;14.02;5.63;;;16.60;99.90;;;;;;5047712;28;20041;-79
2023/09/29 05:22:02;;;;;;;13.23;5.72;;;16.60;99.90;;;;;;5047915;28;20043;-79
2023/09/29 05:24:28;;;;;;;10.90;5.50;;;16.60;99.90;;;;;;5047865;28;20811;-80
2023/09/29 05:26:54;;;;;;;8.85;5.05;;;16.60;99.90;;;;;;5046651;28;20036;-80
2023/09/29 05:29:19;;;;;;;9.85;5.32;;;16.60;99.90;;;;;;5046597;28;20041;-79
2023/09/29 05:31:45;;;;;;;9.70;5.30;;;16.70;99.90;;;;;;5046574;28;20515;-79
2023/09/29 05:34:11;;;;;;;12.25;5.30;;;16.60;99.90;;;;;;5028178;28;20041;-79
2023/09/29 05:36:36;;;;;;;13.70;5.68;;;16.70;99.90;;;;;;5046636;28;20072;-79
2023/09/29 05:39:04;;;;;;;14.30;5.50;;;16.70;99.90;;;;;;5029102;28;20048;-79
2023/09/29 05:41:29;;;;;;;13.77;5.25;;;16.70;99.90;;;;;;5043123;28;20032;-79
2023/09/29 05:43:55;;;;;;;9.43;5.22;;;16.60;99.90;;;;;;5039782;28;20052;-79
2023/09/29 05:46:21;;;;;;;13.18;5.50;;;16.70;99.90;;;;;;5058425;28;20048;-79
2023/09/29 05:48:46;;;;;;;10.40;5.15;;;16.70;99.90;;;;;;5042951;28;20118;-79
2023/09/29 05:51:12;;;;;;;15.80;5.57;;;16.50;99.90;;;;;;5039722;28;20198;-79
2023/09/29 05:53:37;;;;;;;11.07;5.00;;;16.60;99.90;;;;;;5022756;28;20053;-79
2023/09/29 05:56:08;;;;;;;15.45;5.18;;;16.60;99.90;;;;;;5019985;28;20028;-79
2023/09/29 05:58:35;;;;;;;10.93;4.68;;;16.60;99.90;;;;;;5041404;28;20484;-79
2023/09/29 06:01:12;;;;;;;12.38;4.68;;;16.60;99.90;;;;;;5040305;28;20035;-79
2023/09/29 06:03:38;;;;;;;11.50;4.68;;;16.70;99.90;;;;;;5044653;28;20052;-78
2023/09/29 06:06:04;;;;;;;12.68;4.45;;;16.70;99.90;;;;;;5040816;28;20116;-79
2023/09/29 06:08:30;;;;;;;9.90;4.72;;;16.70;99.90;;;;;;5038789;28;20028;-81
2023/09/29 06:10:57;;;;;;;9.20;4.50;;;16.70;99.90;;;;;;5039674;28;20568;-81
2023/09/29 06:13:23;;;;;;;12.23;4.35;;;16.70;99.90;;;;;;5029741;28;20171;-80
2023/09/29 06:15:48;;;;;;;7.95;4.13;;;16.80;99.90;;;;;;5039951;28;20144;-81
2023/09/29 06:18:15;;;;;;;7.82;4.22;;;16.80;99.90;;;;;;5044780;28;20124;-81
2023/09/29 06:20:40;;;;;;;7.18;3.83;;;16.80;99.90;;;;;;5027219;28;20276;-81
2023/09/29 06:23:07;;;;;;;8.65;4.22;;;16.90;99.90;;;;;;5045219;28;20542;-82
2023/09/29 06:25:33;;;;;;;9.00;4.53;;;17.00;99.90;;;;;;5041520;28;20045;-80
2023/09/29 06:27:59;;;;;;;12.10;4.85;;;17.00;99.90;;;;;;5037560;28;20048;-80
2023/09/29 06:30:25;;;;;;;9.63;4.75;;;17.00;99.90;;;;;;5029379;28;20048;-82
2023/09/29 06:32:50;;;;;;;7.53;3.72;;;17.00;99.90;;;;;;5063335;28;20036;-81
2023/09/29 06:35:16;;;;;;;8.65;3.75;;;17.00;99.90;;;;;;5027387;28;20072;-79
2023/09/29 06:37:42;;;;;;;9.10;5.15;;;17.00;99.90;;;;;;5027530;28;20048;-79
2023/09/29 06:40:11;;;;;;;7.95;4.05;;;17.10;99.90;;;;;;5044072;28;20037;-82
2023/09/29 06:42:38;;;;;;;9.43;3.90;;;17.10;99.90;;;;;;5045812;28;20156;-79
2023/09/29 06:45:06;;;;;;;10.95;4.45;;;17.10;99.90;;;;;;5020928;28;20041;-79
2023/09/29 06:47:32;;;;;;;12.15;4.18;;;17.10;99.90;;;;;;5027118;28;20045;-80
2023/09/29 06:49:58;;;;;;;6.60;3.60;;;17.20;99.90;;;;;;5036008;28;20051;-81
2023/09/29 06:52:25;;;;;;;9.55;3.58;;;17.20;99.90;;;;;;5028525;28;20049;-80
2023/09/29 06:54:50;;;;;;;9.00;3.78;;;17.20;99.90;;;;;;5029365;28;20090;-81
2023/09/29 06:57:16;;;;;;;8.25;3.40;;;17.20;99.90;;;;;;5029011;28;20120;-80
2023/09/29 06:59:42;;;;;;;9.88;3.55;;;17.30;99.90;;;;;;5033006;28;20095;-80
2023/09/29 07:02:08;;;;;;;9.73;3.15;;;17.30;99.90;;;;;;5031119;28;20066;-80
2023/09/29 07:04:33;;;;;;;7.40;3.50;;;17.30;99.90;;;;;;5029115;28;20040;-81
2023/09/29 07:06:59;;;;;;;11.88;3.50;;;17.30;99.90;;;;;;5045148;28;20100;-80
2023/09/29 07:09:26;;;;;;;7.05;3.67;;;17.40;99.90;;;;;;5045251;28;20515;-81
2023/09/29 07:11:51;;;;;;;5.40;2.75;;;17.60;99.90;;;;;;5047085;28;20036;-82
2023/09/29 07:14:17;;;;;;;6.57;3.50;;;17.60;99.90;;;;;;5029091;28;20045;-82
2023/09/29 07:16:44;;;;;;;5.28;2.60;;;17.70;99.90;;;;;;5028131;28;20037;-80
2023/09/29 07:19:12;;;;;;;6.65;3.10;;;17.70;99.90;;;;;;5018051;28;20044;-80
2023/09/29 07:21:40;;;;;;;6.10;3.08;;;17.80;99.90;;;;;;5042818;28;20032;-80
2023/09/29 07:24:07;;;;;;;7.35;2.90;;;17.90;99.50;;;;;;5044189;28;20049;-80
2023/09/29 07:26:33;;;;;;;6.55;2.97;;;17.90;82.90;;;;;;5042601;28;20040;-80
2023/09/29 07:29:01;;;;;;;6.35;2.75;;;17.90;65.40;;;;;;5025127;28;20114;-80
2023/09/29 07:31:36;;;;;;;6.80;3.08;;;17.90;62.70;;;;;;5025158;28;20084;-80
2023/09/29 07:34:02;;;;;;;7.85;2.80;;;17.90;78.70;;;;;;5027910;28;20037;-81
2023/09/29 07:36:30;;;;;;;7.10;3.10;;;17.80;99.30;;;;;;5024091;28;20049;-81
2023/09/29 07:38:57;;;;;;;6.30;3.45;;;17.90;99.90;;;;;;5038663;28;20514;-81
2023/09/29 07:41:22;;;;;;;4.72;2.90;;;17.90;99.90;;;;;;5040578;28;20511;-81
2023/09/29 07:43:48;;;;;;;3.75;2.60;;;18.00;99.90;;;;;;5022709;28;20045;-81
2023/09/29 07:46:13;;;;;;;8.10;3.20;;;18.00;97.70;;;;;;5033471;28;20049;-81
2023/09/29 07:48:39;;;;;;;7.25;3.60;;;18.10;98.50;;;;;;5022007;28;20037;-81
2023/09/29 07:51:04;;;;;;;3.33;2.80;;;18.20;93.30;;;;;;5043335;28;20084;-81
2023/09/29 07:53:30;;;;;;;6.93;2.88;;;18.40;61.70;;;;;;5031432;28;20049;-81
2023/09/29 07:55:56;;;;;;;4.38;2.90;;;18.40;39.50;;;;;;5039584;28;20380;-81
2023/09/29 07:58:24;;;;;;;3.35;2.50;;;18.60;32.40;;;;;;5038978;28;20037;-81
2023/09/29 08:00:50;;;;;;;4.43;2.83;;;18.70;10.30;;;;;;5045482;28;20037;-81
2023/09/29 08:03:16;;;;;;;6.18;2.30;;;18.90;1.00;;;;;;5020357;28;20488;-81
2023/09/29 08:05:41;;;;;;;4.68;2.67;;;18.90;1.00;;;;;;5044267;28;20041;-82
2023/09/29 08:08:07;;;;;;;5.57;2.60;;;19.00;1.00;;;;;;5043020;28;20526;-81
2023/09/29 08:10:32;;;;;;;5.88;2.67;;;19.10;1.00;;;;;;5032681;28;20065;-81
2023/09/29 08:12:58;;;;;;;7.70;4.15;;;19.20;1.00;;;;;;5044046;28;20041;-81
2023/09/29 08:15:27;;;;;;;4.68;3.22;;;19.20;1.00;;;;;;5046472;28;20052;-81
2023/09/29 08:17:53;;;;;;;4.15;2.45;;;19.30;1.00;;;;;;5048093;28;20045;-81
2023/09/29 08:20:20;;;;;;;3.85;2.50;;;19.30;1.00;;;;;;5044821;28;20122;-81
2023/09/29 08:22:45;;;;;;;7.07;2.78;;;19.30;1.00;;;;;;5036738;28;20045;-81
2023/09/29 08:25:12;;;;;;;6.07;2.60;;;19.40;1.00;;;;;;5031976;28;20707;-79
2023/09/29 08:27:38;;;;;;;4.65;2.30;;;19.40;1.00;;;;;;5031293;28;20119;-81
2023/09/29 08:30:06;;;;;;;4.95;2.65;;;19.50;1.00;;;;;;5048544;28;20117;-81
2023/09/29 08:32:32;;;;;;;4.68;2.50;;;19.60;1.00;;;;;;5054933;28;20469;-83
2023/09/29 08:34:58;;;;;;;5.35;2.60;;;19.70;1.00;;;;;;5041818;28;20042;-81
2023/09/29 08:37:24;;;;;;;4.53;2.63;;;19.80;1.00;;;;;;5032210;28;20472;-82
2023/09/29 08:39:50;;;;;;;3.78;2.33;;;19.90;1.00;;;;;;5041095;28;20045;-81
2023/09/29 08:42:38;;;;;;;4.03;2.17;;;19.90;99.90;;;;;;5032160;28;20037;-81
2023/09/29 08:45:09;;;;;;;5.75;2.92;;;20.00;99.90;;;;;;5045537;28;20487;-79
2023/09/29 08:47:37;;;;;;;4.82;2.40;;;20.10;99.90;;;;;;5048229;28;20094;-79
2023/09/29 08:50:06;;;;;;;4.93;2.35;;;20.10;99.90;;;;;;5034270;28;20084;-79
2023/09/29 08:52:33;;;;;;;6.00;2.50;;;20.20;99.90;;;;;;5031988;28;20079;-79
2023/09/29 08:54:59;;;;;;;3.35;2.22;;;20.40;99.90;;;;;;5062830;28;20090;-81
2023/09/29 08:57:25;;;;;;;3.63;2.33;;;20.40;99.90;;;;;;5058314;28;20137;-81
2023/09/29 08:59:55;;;;;;;4.38;1.55;;;20.50;99.90;;;;;;5046531;28;20040;-81
2023/09/29 09:02:22;;;;;;;2.95;1.85;;;20.70;99.90;;;;;;5060973;28;20040;-80
2023/09/29 09:04:48;;;;;;;3.67;2.00;;;20.90;99.90;;;;;;5047674;28;20064;-81
2023/09/29 09:07:19;;;;;;;5.15;1.90;;;21.10;99.90;;;;;;5032241;28;20475;-81
2023/09/29 09:09:55;;;;;;;3.17;1.85;;;21.20;99.90;;;;;;5043789;28;20112;-80
2023/09/29 09:12:34;;;;;;;3.22;2.00;;;21.50;99.90;;;;;;5046926;28;20060;-80
2023/09/29 09:15:01;;;;;;;3.40;1.88;;;21.70;99.90;;;;;;5043840;28;20051;-79
2023/09/29 09:17:27;;;;;;;3.05;2.22;;;21.80;99.90;;;;;;5031232;28;20501;-79
2023/09/29 09:19:54;;;;;;;4.18;1.95;;;21.80;99.90;;;;;;5031242;28;20037;-79
2023/09/29 09:22:26;;;;;;;3.33;2.10;;;21.90;99.90;;;;;;5030071;28;20457;-79
2023/09/29 09:25:04;;;;;;;2.80;1.63;;;22.00;99.90;;;;;;5060213;28;20052;-79
2023/09/29 09:27:39;;;;;;;3.60;1.90;;;22.20;99.90;;;;;;5030014;28;20124;-79
2023/09/29 09:30:06;;;;;;;3.30;1.98;;;22.50;99.90;;;;;;5056189;28;20033;-80
2023/09/29 09:32:32;;;;;;;3.97;1.80;;;22.40;99.90;;;;;;5047022;28;20044;-79
2023/09/29 09:34:58;;;;;;;3.55;1.77;;;22.20;99.90;;;;;;5036613;28;20040;-79
2023/09/29 09:37:28;;;;;;;3.17;1.40;;;22.10;99.90;;;;;;5043759;28;20049;-78
2023/09/29 09:39:59;;;;;;;4.72;1.90;;;22.10;99.90;;;;;;5047360;28;20560;-79
2023/09/29 09:42:27;;;;;;;6.32;1.98;;;22.00;94.30;;;;;;5033549;28;20278;-80
2023/09/29 09:44:57;;;;;;;4.22;2.05;;;21.90;99.90;;;;;;5024971;28;20040;-79
2023/09/29 09:47:25;;;;;;;3.30;1.67;;;21.80;99.90;;;;;;5028993;28;20059;-78
2023/09/29 09:49:57;;;;;;;3.42;1.58;;;22.00;99.90;;;;;;5047134;28;20045;-78
2023/09/29 09:52:29;;;;;;;2.90;1.50;;;22.30;99.90;;;;;;5029998;28;20080;-80
2023/09/29 09:54:58;;;;;;;4.25;1.98;;;22.60;99.90;;;;;;5030651;28;20052;-79
2023/09/29 09:57:38;;;;;;;2.60;1.73;;;22.80;91.10;;;;;;5046594;28;20037;-78
2023/09/29 10:00:12;;;;;;;2.25;1.70;;;22.80;25.70;;;;;;5030197;28;20045;-79
2023/09/29 10:02:51;;;;;;;3.70;1.48;;;22.60;30.90;;;;;;5028475;28;20490;-78
2023/09/29 10:05:25;;;;;;;2.40;1.80;;;22.30;40.30;;;;;;5060630;28;20096;-79
2023/09/29 10:08:01;;;;;;;5.80;2.28;;;22.20;75.00;;;;;;5046493;28;20171;-78
2023/09/29 10:10:48;;;;;;;3.42;2.03;;;22.30;85.40;;;;;;5018025;28;20582;-79
2023/09/29 10:13:15;;;;;;;3.92;2.00;;;22.50;61.10;;;;;;5046242;28;20041;-78
2023/09/29 10:15:55;;;;;;;4.30;1.73;;;22.60;67.70;;;;;;5024460;28;20964;-78
2023/09/29 10:18:23;;;;;;;5.35;2.15;;;22.70;53.80;;;;;;5042621;28;20075;-79
2023/09/29 10:21:00;;;;;;;6.82;2.25;;;22.80;44.60;;;;;;5029719;28;20105;-79
2023/09/29 10:23:26;;;;;;;5.20;1.90;;;22.50;43.20;;;;;;5044811;28;20399;-78
2023/09/29 10:25:59;;;;;;;6.75;2.53;;;22.30;58.20;;;;;;5045889;28;20048;-79
2023/09/29 10:28:32;;;;;;;4.88;2.30;;;22.30;63.10;;;;;;5027393;28;20612;-78
2023/09/29 10:31:19;;;;;;;3.55;1.75;;;22.20;73.20;;;;;;5046282;28;20051;-79
2023/09/29 10:33:53;;;;;;;7.50;2.17;;;22.00;54.00;;;;;;5017408;28;20040;-79
2023/09/29 10:36:27;;;;;;;6.05;2.10;;;21.80;95.50;;;;;;5043185;28;20040;-79
2023/09/29 10:38:59;;;;;;;4.03;2.00;;;21.70;99.90;;;;;;5044917;28;20514;-78
2023/09/29 10:41:28;;;;;;;7.50;2.65;;;21.70;99.90;;;;;;5029313;28;20032;-79
2023/09/29 10:43:59;;;;;;;2.85;2.10;;;21.60;99.90;;;;;;5034286;28;20045;-78
2023/09/29 10:46:25;;;;;;;3.35;2.05;;;21.40;99.90;;;;;;5017577;28;20090;-79
2023/09/29 10:48:53;;;;;;;3.60;1.83;;;21.20;99.90;;;;;;5026011;28;20426;-78
2023/09/29 10:51:27;;;;;;;3.80;2.15;;;21.20;99.90;;;;;;5029537;28;20055;-79
2023/09/29 10:53:53;;;;;;;4.63;2.30;;;21.10;99.90;;;;;;5028742;28;20126;-79
2023/09/29 10:56:25;;;;;;;6.35;2.63;;;20.90;99.90;;;;;;5021447;28;20049;-78
2023/09/29 10:58:52;;;;;;;4.55;2.58;;;20.50;1.00;;;;;;5042356;28;20071;-79
2023/09/29 11:01:25;;;;;;;5.13;2.55;;;19.80;93.50;;;;;;5029164;28;20562;-79
2023/09/29 11:03:51;;;;;;;4.38;2.67;;;19.40;99.90;;;;;;5062656;28;20040;-80
2023/09/29 11:06:17;;;;;;;4.70;2.88;;;19.10;99.90;;;;;;5046080;28;20380;-79
2023/09/29 11:08:59;;;;;;;3.92;3.00;;;18.90;99.90;;;;;;5028651;28;20052;-79
2023/09/29 11:11:26;;;;;;;5.05;2.85;;;18.90;1.00;;;;;;5045129;28;20040;-80
2023/09/29 11:13:56;;;;;;;4.28;2.80;;;18.90;1.00;;;;;;5043027;28;20049;-80
2023/09/29 11:16:25;;;;;;;6.57;3.10;;;19.10;1.00;;;;;;5043904;28;20083;-79
2023/09/29 11:18:56;;;;;;;7.07;3.30;;;19.20;1.00;;;;;;5034740;28;20064;-80
2023/09/29 11:21:35;;;;;;;6.10;3.95;;;19.10;1.00;;;;;;5028909;28;20080;-80
2023/09/29 11:24:13;;;;;;;7.10;3.20;;;19.10;1.00;;;;;;5021731;28;20225;-80
2023/09/29 11:26:48;;;;;;;4.57;3.00;;;19.10;1.00;;;;;;5026477;28;20049;-80
2023/09/29 11:29:29;;;;;;;5.15;3.22;;;19.20;1.00;;;;;;5044777;28;20037;-79
2023/09/29 11:31:55;;;;;;;4.13;2.40;;;19.30;1.00;;;;;;5045585;28;20033;-79
2023/09/29 11:34:21;;;;;;;6.13;2.80;;;19.40;1.00;;;;;;5016698;28;20057;-79
2023/09/29 11:36:50;;;;;;;5.13;2.80;;;19.30;1.00;;;;;;5044856;28;20163;-79
2023/09/29 11:39:18;;;;;;;5.45;2.85;;;19.30;1.00;;;;;;5050814;28;20039;-79
2023/09/29 11:41:45;;;;;;;5.05;2.67;;;19.20;1.00;;;;;;5048742;28;20045;-79
2023/09/29 11:44:12;;;;;;;4.55;3.08;;;19.10;1.00;;;;;;5048245;28;20246;-79
2023/09/29 11:46:39;;;;;;;5.07;2.65;;;19.10;1.00;;;;;;5045489;28;20499;-79
2023/09/29 11:49:05;;;;;;;4.22;2.70;;;19.10;1.00;;;;;;5036878;28;20124;-79
2023/09/29 11:51:31;;;;;;;7.97;3.65;;;19.10;1.00;;;;;;5048657;28;20418;-79
2023/09/29 11:53:56;;;;;;;6.43;2.83;;;19.00;1.00;;;;;;5045238;28;20053;-79
2023/09/29 11:56:22;;;;;;;6.20;2.88;;;19.00;1.00;;;;;;5032865;28;20041;-80
2023/09/29 11:58:49;;;;;;;5.22;3.08;;;19.00;1.00;;;;;;5044647;28;20521;-79
2023/09/29 12:01:17;;;;;;;6.30;2.95;;;19.10;1.00;;;;;;5049572;28;20040;-80
2023/09/29 12:03:42;;;;;;;5.78;3.20;;;19.00;1.00;;;;;;5047600;28;20064;-80
2023/09/29 12:06:08;;;;;;;4.63;2.75;;;19.00;1.00;;;;;;5048996;28;20048;-80
2023/09/29 12:08:35;;;;;;;4.20;2.80;;;19.00;1.00;;;;;;5030315;28;20054;-80
2023/09/29 12:11:07;;;;;;;6.90;2.97;;;19.10;7.60;;;;;;5029782;28;20045;-80
2023/09/29 12:13:33;;;;;;;8.90;3.10;;;19.40;9.50;;;;;;5028936;28;20059;-80
2023/09/29 12:15:59;;;;;;;8.15;3.63;;;19.80;1.00;;;;;;5047582;28;20055;-79
2023/09/29 12:18:28;;;;;;;5.47;2.60;;;20.00;1.00;;;;;;5064542;28;20051;-80
2023/09/29 12:20:55;;;;;;;8.68;3.08;;;20.00;1.00;;;;;;5037342;28;20041;-81
2023/09/29 12:23:24;;;;;;;3.83;2.72;;;20.20;1.00;;;;;;5029266;28;20651;-80
2023/09/29 12:25:50;;;;;;;5.72;3.10;;;20.40;1.00;;;;;;5056413;28;20129;-82
2023/09/29 12:28:15;;;;;;;5.32;3.03;;;20.50;1.00;;;;;;5042379;28;20127;-82
2023/09/29 12:30:43;;;;;;;9.65;3.40;;;20.40;1.00;;;;;;5045141;28;20151;-80
2023/09/29 12:33:10;;;;;;;6.10;3.00;;;20.30;1.00;;;;;;5046176;28;20068;-80
2023/09/29 12:35:36;;;;;;;6.15;3.03;;;20.10;1.00;;;;;;5048163;28;20129;-82
2023/09/29 12:38:03;;;;;;;5.05;3.00;;;20.00;1.00;;;;;;5029100;28;20269;-80
2023/09/29 12:40:29;;;;;;;6.25;3.22;;;19.90;1.00;;;;;;5059926;28;20047;-81
2023/09/29 12:42:56;;;;;;;5.30;3.50;;;19.80;1.00;;;;;;5030979;28;20124;-81
2023/09/29 12:45:23;;;;;;;7.38;3.95;;;19.70;1.00;;;;;;5020248;28;20447;-81
2023/09/29 12:47:56;;;;;;;7.95;3.78;;;19.50;1.00;;;;;;5048090;28;20064;-81